Time;durP1;ratioP1;P1;durP2;ratioP2;P2;SDS_P1;SDS_P2;PMS_P1;PMS_P2;Temp;Humidity;BMP_temperature;BMP_pressure;BME280_temperature;BME280_humidity;BME280_pressure;Samples;Min_cycle;Max_cycle;Signal;HPM_P1;HPM_P2
2021/06/20 00:01:22;;;;;;;38.97;34.45;;;18.70;99.90;;;;;;4833033;29;20502;-76
2021/06/20 00:03:49;;;;;;;43.92;39.17;;;18.80;99.90;;;;;;4811899;29;20512;-79
2021/06/20 00:06:32;;;;;;;40.65;35.65;;;18.80;99.90;;;;;;4833054;29;20053;-81
2021/06/20 00:09:00;;;;;;;43.63;39.03;;;18.80;99.90;;;;;;4829284;29;20494;-80
2021/06/20 00:11:28;;;;;;;48.13;41.60;;;18.80;99.90;;;;;;4835418;29;20041;-80
2021/06/20 00:13:55;;;;;;;52.30;44.25;;;18.90;99.90;;;;;;4833099;29;20057;-80
2021/06/20 00:16:22;;;;;;;48.33;42.33;;;19.00;99.90;;;;;;4834155;29;20061;-80
2021/06/20 00:18:50;;;;;;;38.80;34.70;;;19.00;99.90;;;;;;4815031;29;20038;-80
2021/06/20 00:21:16;;;;;;;49.25;43.88;;;19.10;99.90;;;;;;4830358;29;20044;-80
2021/06/20 00:23:43;;;;;;;55.13;47.63;;;19.00;99.90;;;;;;4829984;29;20050;-80
2021/06/20 00:26:10;;;;;;;45.47;40.60;;;19.10;99.90;;;;;;4805551;29;20038;-80
2021/06/20 00:28:37;;;;;;;46.42;41.38;;;19.10;99.90;;;;;;4832835;29;20034;-79
2021/06/20 00:31:07;;;;;;;50.35;41.55;;;19.00;99.90;;;;;;4834568;29;20038;-80
2021/06/20 00:33:33;;;;;;;56.22;46.78;;;19.10;99.90;;;;;;4836344;29;20030;-77
2021/06/20 00:36:00;;;;;;;47.75;42.60;;;19.10;99.90;;;;;;4836355;29;20399;-80
2021/06/20 00:38:27;;;;;;;47.42;42.28;;;19.10;99.90;;;;;;4834819;29;20037;-79
2021/06/20 00:40:53;;;;;;;51.17;45.28;;;19.00;99.90;;;;;;4836417;29;20402;-79
2021/06/20 00:43:20;;;;;;;49.15;42.00;;;19.00;99.90;;;;;;4819041;29;20069;-79
2021/06/20 00:45:46;;;;;;;48.63;42.00;;;19.00;99.90;;;;;;4835083;29;20510;-79
2021/06/20 00:48:13;;;;;;;52.15;43.17;;;19.00;99.90;;;;;;4801412;29;20069;-78
2021/06/20 00:50:40;;;;;;;45.10;38.90;;;19.00;99.90;;;;;;4835055;29;20049;-79
2021/06/20 00:53:06;;;;;;;42.85;36.17;;;19.10;99.90;;;;;;4835845;29;20052;-79
2021/06/20 00:55:37;;;;;;;46.25;41.25;;;19.10;99.90;;;;;;4820013;29;20037;-79
2021/06/20 00:58:06;;;;;;;48.65;41.30;;;19.20;99.90;;;;;;4834781;29;20042;-79
2021/06/20 01:00:34;;;;;;;46.03;39.95;;;19.20;99.90;;;;;;4834792;29;20061;-79
2021/06/20 01:03:01;;;;;;;42.33;37.58;;;19.30;99.90;;;;;;4835747;29;20049;-79
2021/06/20 01:05:28;;;;;;;41.25;36.85;;;19.30;99.90;;;;;;4820301;29;20045;-78
2021/06/20 01:07:55;;;;;;;40.97;36.58;;;19.40;99.90;;;;;;4833235;29;20058;-78
2021/06/20 01:10:24;;;;;;;44.53;38.00;;;19.40;99.90;;;;;;4831944;29;20054;-78
2021/06/20 01:12:51;;;;;;;45.42;37.10;;;19.40;99.90;;;;;;4834143;29;20038;-78
2021/06/20 01:15:17;;;;;;;41.88;37.50;;;19.40;99.90;;;;;;4805454;29;20425;-78
2021/06/20 01:17:45;;;;;;;36.90;32.67;;;19.50;99.90;;;;;;4833633;29;20054;-78
2021/06/20 01:20:18;;;;;;;38.30;33.72;;;19.50;99.90;;;;;;4834801;29;20058;-79
2021/06/20 01:22:46;;;;;;;;;;;19.50;99.90;;;;;;4836328;29;20053;-79
2021/06/20 01:25:15;;;;;;;32.55;28.42;;;19.60;99.90;;;;;;4835190;29;20007;-78
2021/06/20 01:27:44;;;;;;;40.78;33.25;;;19.60;99.90;;;;;;4818462;29;20057;-78
2021/06/20 01:30:14;;;;;;;38.97;34.80;;;19.60;99.90;;;;;;4832362;29;20045;-78
2021/06/20 01:32:41;;;;;;;33.63;30.15;;;19.60;99.90;;;;;;4834747;29;20046;-78
2021/06/20 01:35:13;;;;;;;35.30;31.33;;;19.60;99.90;;;;;;4804109;29;20042;-78
2021/06/20 01:37:40;;;;;;;28.93;25.87;;;19.70;99.90;;;;;;4833547;29;20410;-79
2021/06/20 01:40:09;;;;;;;29.15;26.30;;;19.70;99.90;;;;;;4830706;29;20655;-79
2021/06/20 01:42:36;;;;;;;29.83;26.73;;;19.70;99.90;;;;;;4836145;29;20062;-78
2021/06/20 01:45:05;;;;;;;27.30;24.40;;;19.80;99.90;;;;;;4820381;29;20042;-78
2021/06/20 01:47:31;;;;;;;26.23;23.60;;;19.80;99.90;;;;;;4804345;29;20061;-78
2021/06/20 01:50:00;;;;;;;26.38;23.67;;;19.90;99.90;;;;;;4833410;29;20045;-78
2021/06/20 01:52:28;;;;;;;28.17;25.17;;;19.90;99.90;;;;;;4824267;29;20405;-78
2021/06/20 01:54:56;;;;;;;30.13;26.88;;;19.90;99.90;;;;;;4824102;29;20056;-78
2021/06/20 01:57:25;;;;;;;28.65;25.55;;;19.90;99.90;;;;;;4834461;29;20053;-78
2021/06/20 01:59:52;;;;;;;28.25;25.20;;;19.90;99.90;;;;;;4832406;29;20050;-79
2021/06/20 02:02:20;;;;;;;27.38;24.55;;;20.00;99.90;;;;;;4828348;29;20061;-78
2021/06/20 02:04:47;;;;;;;27.45;24.05;;;20.00;99.90;;;;;;4831235;29;20050;-79
2021/06/20 02:07:14;;;;;;;25.77;23.20;;;20.00;99.90;;;;;;4834126;29;20049;-78
2021/06/20 02:09:41;;;;;;;29.88;26.67;;;20.00;99.90;;;;;;4832331;29;20046;-78
2021/06/20 02:12:09;;;;;;;27.58;24.50;;;20.00;99.90;;;;;;4835935;29;20066;-78
2021/06/20 02:14:38;;;;;;;26.40;23.63;;;20.00;99.90;;;;;;4831020;29;20063;-78
2021/06/20 02:17:22;;;;;;;24.27;21.88;;;20.00;99.90;;;;;;4835331;29;20054;-78
2021/06/20 02:19:51;;;;;;;24.80;22.30;;;20.00;99.90;;;;;;4831705;29;20064;-79
2021/06/20 02:22:18;;;;;;;24.73;22.33;;;20.00;99.90;;;;;;4830723;29;20068;-78
2021/06/20 02:24:45;;;;;;;25.63;22.95;;;20.00;99.90;;;;;;4814007;29;20050;-79
2021/06/20 02:27:13;;;;;;;25.48;22.75;;;20.10;99.90;;;;;;4834556;29;20049;-78
2021/06/20 02:29:41;;;;;;;24.17;21.67;;;20.10;99.90;;;;;;4831586;29;20080;-78
2021/06/20 02:32:09;;;;;;;25.27;22.67;;;20.20;99.90;;;;;;4834277;29;20042;-79
2021/06/20 02:34:38;;;;;;;25.23;22.73;;;20.20;99.90;;;;;;4833556;29;20038;-79
2021/06/20 02:37:05;;;;;;;26.50;23.80;;;20.20;99.90;;;;;;4835159;29;20054;-78
2021/06/20 02:39:32;;;;;;;25.63;22.95;;;20.30;99.90;;;;;;4801154;29;20053;-78
2021/06/20 02:41:59;;;;;;;25.33;22.73;;;20.30;99.90;;;;;;4833681;29;20430;-78
2021/06/20 02:44:26;;;;;;;26.50;23.27;;;20.40;99.90;;;;;;4819054;29;20049;-78
2021/06/20 02:46:54;;;;;;;23.50;21.23;;;20.40;99.90;;;;;;4835126;29;20038;-79
2021/06/20 02:49:20;;;;;;;24.83;22.30;;;20.40;99.90;;;;;;4835560;29;20054;-79
2021/06/20 02:51:47;;;;;;;23.08;20.83;;;20.40;99.90;;;;;;4837761;29;20061;-79
2021/06/20 02:54:14;;;;;;;24.75;22.23;;;20.40;99.90;;;;;;4819509;29;20049;-79
2021/06/20 02:56:41;;;;;;;24.77;22.23;;;20.50;99.90;;;;;;4805288;29;20041;-79
2021/06/20 02:59:07;;;;;;;25.58;23.00;;;20.50;99.90;;;;;;4832360;29;20049;-79
2021/06/20 03:01:34;;;;;;;26.63;23.92;;;20.50;99.90;;;;;;4837409;29;20046;-79
2021/06/20 03:04:00;;;;;;;29.85;26.75;;;20.50;99.90;;;;;;4805535;29;20053;-79
2021/06/20 03:06:27;;;;;;;32.38;28.95;;;20.50;99.90;;;;;;4837122;29;20498;-79
2021/06/20 03:08:54;;;;;;;32.47;26.95;;;20.50;99.90;;;;;;4834044;29;20041;-79
2021/06/20 03:11:20;;;;;;;28.25;25.35;;;20.50;99.90;;;;;;4837223;29;20061;-79
2021/06/20 03:13:48;;;;;;;29.42;26.40;;;20.50;99.90;;;;;;4835949;29;20062;-79
2021/06/20 03:16:17;;;;;;;31.98;28.67;;;20.50;99.90;;;;;;4837068;29;20049;-79
2021/06/20 03:18:44;;;;;;;32.00;28.15;;;20.50;99.90;;;;;;4818598;29;20050;-79
2021/06/20 03:21:11;;;;;;;35.20;29.98;;;20.50;99.90;;;;;;4835728;29;20046;-79
2021/06/20 03:23:37;;;;;;;34.60;31.02;;;20.50;99.90;;;;;;4805260;29;20044;-79
2021/06/20 03:26:04;;;;;;;33.60;28.75;;;20.50;99.90;;;;;;4821602;29;20041;-79
2021/06/20 03:28:31;;;;;;;36.85;33.05;;;20.50;99.90;;;;;;4819340;29;20043;-79
2021/06/20 03:30:57;;;;;;;42.88;37.30;;;20.50;99.90;;;;;;4820709;29;20042;-79
2021/06/20 03:33:24;;;;;;;35.13;31.42;;;20.50;99.90;;;;;;4834782;29;20046;-79
2021/06/20 03:35:50;;;;;;;39.75;35.42;;;20.50;99.90;;;;;;4807814;29;20815;-79
2021/06/20 03:38:17;;;;;;;39.03;35.03;;;20.50;99.90;;;;;;4819785;29;20052;-79
2021/06/20 03:40:43;;;;;;;38.78;32.60;;;20.50;99.90;;;;;;4835924;29;20093;-79
2021/06/20 03:43:10;;;;;;;46.85;39.45;;;20.40;99.90;;;;;;4833937;29;20061;-79
2021/06/20 03:45:36;;;;;;;42.40;37.83;;;20.50;99.90;;;;;;4837578;29;20794;-78
2021/06/20 03:48:03;;;;;;;42.65;37.45;;;20.40;99.90;;;;;;4834060;29;20065;-79
2021/06/20 03:50:30;;;;;;;42.35;37.85;;;20.40;99.90;;;;;;4834676;29;20883;-78
2021/06/20 03:52:56;;;;;;;49.13;40.95;;;20.30;99.90;;;;;;4836842;29;20113;-79
2021/06/20 03:55:23;;;;;;;48.25;43.00;;;20.30;99.90;;;;;;4836306;29;20925;-78
2021/06/20 03:57:49;;;;;;;50.20;43.70;;;20.20;99.90;;;;;;4834610;29;20073;-79
2021/06/20 04:00:16;;;;;;;50.10;44.60;;;20.20;99.90;;;;;;4835573;29;20871;-80
2021/06/20 04:02:43;;;;;;;41.17;36.78;;;20.10;99.90;;;;;;4818906;29;20054;-79
2021/06/20 04:05:13;;;;;;;50.75;43.42;;;20.10;99.90;;;;;;4830305;29;20046;-79
2021/06/20 04:07:40;;;;;;;48.50;43.17;;;20.00;99.90;;;;;;4834299;29;20469;-80
2021/06/20 04:10:07;;;;;;;43.83;39.05;;;19.90;99.90;;;;;;4835057;29;20049;-80
2021/06/20 04:12:34;;;;;;;46.72;41.72;;;19.80;99.90;;;;;;4833647;29;20517;-79
2021/06/20 04:15:00;;;;;;;44.92;40.03;;;19.80;99.90;;;;;;4820716;29;20584;-79
2021/06/20 04:17:29;;;;;;;43.80;37.63;;;19.70;99.90;;;;;;4837345;29;20057;-79
2021/06/20 04:19:56;;;;;;;44.25;39.45;;;19.60;99.90;;;;;;4818380;29;20046;-78
2021/06/20 04:22:22;;;;;;;42.50;37.97;;;19.50;99.90;;;;;;4816358;29;20626;-78
2021/06/20 04:24:49;;;;;;;42.70;36.58;;;19.50;99.90;;;;;;4834691;29;20084;-78
2021/06/20 04:27:15;;;;;;;41.50;35.30;;;19.50;99.90;;;;;;4834595;29;20941;-79
2021/06/20 04:29:42;;;;;;;41.85;35.50;;;19.40;99.90;;;;;;4834048;29;20053;-79
2021/06/20 04:32:08;;;;;;;30.67;26.73;;;19.30;99.90;;;;;;4834620;29;20049;-79
2021/06/20 04:34:35;;;;;;;32.92;28.08;;;19.30;99.90;;;;;;4820100;29;20041;-81
2021/06/20 04:37:01;;;;;;;36.67;29.27;;;19.30;99.90;;;;;;4836957;29;20054;-79
2021/06/20 04:39:28;;;;;;;33.65;29.60;;;19.30;99.90;;;;;;4833432;29;20038;-78
2021/06/20 04:41:55;;;;;;;40.13;33.60;;;19.20;99.90;;;;;;4831762;29;20057;-79
2021/06/20 04:44:43;;;;;;;36.83;30.38;;;19.20;99.90;;;;;;4804386;29;20064;-78
2021/06/20 04:47:12;;;;;;;31.70;27.38;;;19.20;99.90;;;;;;4833680;29;20050;-78
2021/06/20 04:49:40;;;;;;;37.67;31.02;;;19.20;99.90;;;;;;4834297;29;20034;-78
2021/06/20 04:52:08;;;;;;;36.42;31.98;;;19.20;99.90;;;;;;4833711;29;20053;-78
2021/06/20 04:54:36;;;;;;;39.30;32.22;;;19.20;99.90;;;;;;4833137;29;20058;-79
2021/06/20 04:57:04;;;;;;;46.33;35.30;;;19.20;99.90;;;;;;4820339;29;20051;-78
2021/06/20 04:59:30;;;;;;;44.30;36.05;;;19.20;99.90;;;;;;4832249;29;20533;-79
2021/06/20 05:01:57;;;;;;;43.13;36.45;;;19.20;99.90;;;;;;4836715;29;20045;-79
2021/06/20 05:04:23;;;;;;;50.47;39.58;;;19.20;99.90;;;;;;4833916;29;20037;-78
2021/06/20 05:06:51;;;;;;;43.80;35.42;;;19.20;99.90;;;;;;4835335;29;20038;-78
2021/06/20 05:09:17;;;;;;;47.80;37.90;;;19.20;99.90;;;;;;4831119;29;20045;-78
2021/06/20 05:11:44;;;;;;;41.15;33.65;;;19.20;99.90;;;;;;4835216;29;20054;-78
2021/06/20 05:14:10;;;;;;;41.53;33.80;;;19.20;99.90;;;;;;4820035;29;20068;-78
2021/06/20 05:16:37;;;;;;;42.17;34.35;;;19.20;99.90;;;;;;4819562;29;20517;-78
2021/06/20 05:19:03;;;;;;;40.08;33.05;;;19.20;99.90;;;;;;4834545;29;20850;-78
2021/06/20 05:21:33;;;;;;;42.45;34.58;;;19.20;99.90;;;;;;4832468;29;20057;-77
2021/06/20 05:24:02;;;;;;;39.00;32.72;;;19.30;99.90;;;;;;4818313;29;20410;-77
2021/06/20 05:26:29;;;;;;;44.88;35.40;;;19.30;99.90;;;;;;4835651;29;20034;-77
2021/06/20 05:28:57;;;;;;;40.83;34.63;;;19.30;99.90;;;;;;4817074;29;20517;-77
2021/06/20 05:31:26;;;;;;;42.17;33.65;;;19.30;99.90;;;;;;4819684;29;20046;-77
2021/06/20 05:33:53;;;;;;;44.53;37.22;;;19.30;99.90;;;;;;4801798;29;20053;-77
2021/06/20 05:36:20;;;;;;;45.00;36.15;;;19.30;99.90;;;;;;4834924;29;20827;-77
2021/06/20 05:38:47;;;;;;;55.47;40.97;;;19.40;99.90;;;;;;4817419;29;20057;-77
2021/06/20 05:41:16;;;;;;;47.92;36.58;;;19.30;99.90;;;;;;4819808;29;20052;-77
2021/06/20 05:43:44;;;;;;;49.78;39.95;;;19.30;99.90;;;;;;4819786;29;20060;-77
2021/06/20 05:46:13;;;;;;;50.80;38.13;;;19.30;99.90;;;;;;4818809;29;20057;-77
2021/06/20 05:48:41;;;;;;;50.85;38.08;;;19.30;99.90;;;;;;4831725;29;20062;-77
2021/06/20 05:51:09;;;;;;;51.80;37.40;;;19.30;99.90;;;;;;4818527;29;20057;-77
2021/06/20 05:53:35;;;;;;;48.25;39.33;;;19.30;99.90;;;;;;4816874;29;20069;-77
2021/06/20 05:56:02;;;;;;;49.72;39.00;;;19.30;99.90;;;;;;4833318;29;20053;-77
2021/06/20 05:58:28;;;;;;;51.78;39.10;;;19.30;99.90;;;;;;4814735;29;20048;-77
2021/06/20 06:00:55;;;;;;;51.55;40.22;;;19.30;99.90;;;;;;4831904;29;20038;-76
2021/06/20 06:03:21;;;;;;;50.88;41.65;;;19.30;99.90;;;;;;4815738;29;20049;-77
2021/06/20 06:05:48;;;;;;;52.30;42.13;;;19.30;99.90;;;;;;4831419;29;20050;-77
2021/06/20 06:08:14;;;;;;;50.75;39.78;;;19.30;99.90;;;;;;4801715;29;20069;-77
2021/06/20 06:10:41;;;;;;;57.70;43.17;;;19.40;99.90;;;;;;4832925;29;20379;-78
2021/06/20 06:13:07;;;;;;;56.75;41.70;;;19.40;99.90;;;;;;4835609;29;20044;-77
2021/06/20 06:15:34;;;;;;;49.08;37.60;;;19.40;99.90;;;;;;4822064;29;20042;-77
2021/06/20 06:18:01;;;;;;;51.05;40.08;;;19.40;99.90;;;;;;4833390;29;20045;-78
2021/06/20 06:20:28;;;;;;;45.45;37.03;;;19.40;99.90;;;;;;4816675;29;20061;-77
2021/06/20 06:22:57;;;;;;;44.50;34.65;;;19.50;99.90;;;;;;4835929;29;20049;-78
2021/06/20 06:25:24;;;;;;;46.30;36.05;;;19.60;99.90;;;;;;4834271;29;20387;-78
2021/06/20 06:27:51;;;;;;;54.15;41.13;;;19.60;99.90;;;;;;4833392;29;20049;-77
2021/06/20 06:30:18;;;;;;;51.42;39.67;;;19.70;99.90;;;;;;4819936;29;20053;-77
2021/06/20 06:32:46;;;;;;;45.60;36.08;;;19.70;99.90;;;;;;4838595;29;20068;-78
2021/06/20 06:35:15;;;;;;;47.38;36.33;;;19.80;99.90;;;;;;4835140;29;20050;-78
2021/06/20 06:37:42;;;;;;;51.20;38.22;;;19.80;99.90;;;;;;4835553;29;20050;-78
2021/06/20 06:40:11;;;;;;;50.80;39.30;;;19.80;99.90;;;;;;4837639;29;20068;-78
2021/06/20 06:42:41;;;;;;;43.47;34.00;;;19.70;99.90;;;;;;4835062;29;20049;-77
2021/06/20 06:45:09;;;;;;;45.75;35.80;;;19.70;99.90;;;;;;4835620;29;20402;-77
2021/06/20 06:47:36;;;;;;;45.50;35.50;;;19.70;99.90;;;;;;4835251;29;20061;-78
2021/06/20 06:50:07;;;;;;;48.08;37.90;;;19.80;99.90;;;;;;4835848;29;20049;-78
2021/06/20 06:52:35;;;;;;;42.42;35.50;;;19.90;99.90;;;;;;4836968;29;20054;-76
2021/06/20 06:55:05;;;;;;;47.58;37.95;;;20.00;99.90;;;;;;4832115;29;20042;-76
2021/06/20 06:57:33;;;;;;;41.42;32.80;;;20.00;99.90;;;;;;4833182;29;20057;-76
2021/06/20 07:00:02;;;;;;;44.60;37.92;;;20.10;99.90;;;;;;4834369;29;20049;-76
2021/06/20 07:02:31;;;;;;;44.97;37.60;;;20.30;99.90;;;;;;4830088;29;20379;-76
2021/06/20 07:04:57;;;;;;;42.88;35.55;;;20.40;99.90;;;;;;4819764;29;20046;-77
2021/06/20 07:07:25;;;;;;;42.60;34.65;;;20.40;99.90;;;;;;4819458;29;20513;-79
2021/06/20 07:09:52;;;;;;;35.53;30.42;;;20.50;99.90;;;;;;4802811;29;20049;-79
2021/06/20 07:12:19;;;;;;;45.03;36.45;;;20.50;99.90;;;;;;4819471;29;20911;-79
2021/06/20 07:14:45;;;;;;;43.80;38.85;;;20.40;99.90;;;;;;4820416;29;20042;-79
2021/06/20 07:17:13;;;;;;;44.65;36.72;;;20.30;99.90;;;;;;4837394;29;20796;-79
2021/06/20 07:19:39;;;;;;;44.38;37.22;;;20.30;99.90;;;;;;4835264;29;20049;-79
2021/06/20 07:22:06;;;;;;;43.05;38.00;;;20.20;99.90;;;;;;4832848;29;20061;-80
2021/06/20 07:24:33;;;;;;;43.05;36.30;;;20.20;99.90;;;;;;4820848;29;20049;-79
2021/06/20 07:26:59;;;;;;;45.03;37.53;;;20.30;99.90;;;;;;4820839;29;20057;-79
2021/06/20 07:29:26;;;;;;;39.00;33.55;;;20.30;99.90;;;;;;4817184;29;20042;-80
2021/06/20 07:31:52;;;;;;;41.22;34.35;;;20.40;99.90;;;;;;4819845;29;20049;-79
2021/06/20 07:34:19;;;;;;;33.42;29.52;;;20.40;99.90;;;;;;4822685;29;20585;-79
2021/06/20 07:36:45;;;;;;;39.70;34.03;;;20.50;99.90;;;;;;4832974;29;20045;-80
2021/06/20 07:39:12;;;;;;;34.63;30.83;;;20.60;99.90;;;;;;4830971;29;21005;-78
2021/06/20 07:41:38;;;;;;;33.25;28.90;;;20.60;99.90;;;;;;4817128;29;20054;-79
2021/06/20 07:44:06;;;;;;;35.38;29.90;;;20.60;99.90;;;;;;4790062;29;20065;-80
2021/06/20 07:46:33;;;;;;;35.22;31.15;;;20.70;99.90;;;;;;4818771;29;20053;-79
2021/06/20 07:48:59;;;;;;;33.83;30.10;;;20.60;99.90;;;;;;4833629;29;21609;-79
2021/06/20 07:51:26;;;;;;;35.30;29.48;;;20.60;99.90;;;;;;4832945;29;20055;-80
2021/06/20 07:53:52;;;;;;;28.30;24.33;;;20.60;99.90;;;;;;4822973;29;20054;-80
2021/06/20 07:56:20;;;;;;;34.10;29.02;;;20.80;99.90;;;;;;4834834;29;20037;-78
2021/06/20 07:58:46;;;;;;;30.95;27.10;;;20.90;99.90;;;;;;4828225;29;20533;-80
2021/06/20 08:01:13;;;;;;;28.35;23.20;;;21.10;99.90;;;;;;4820418;29;20050;-80
2021/06/20 08:03:39;;;;;;;31.38;27.98;;;21.10;99.90;;;;;;4820730;29;20046;-80
2021/06/20 08:06:06;;;;;;;31.20;26.88;;;21.20;99.90;;;;;;4805106;29;20498;-80
2021/06/20 08:08:33;;;;;;;30.80;25.30;;;21.20;99.90;;;;;;4816389;29;20061;-80
2021/06/20 08:11:02;;;;;;;31.42;25.25;;;21.20;99.90;;;;;;4831168;29;20045;-82
2021/06/20 08:13:29;;;;;;;27.48;23.15;;;21.20;99.70;;;;;;4801309;29;20037;-81
2021/06/20 08:15:55;;;;;;;27.55;23.75;;;21.10;99.70;;;;;;4818341;29;20042;-81
2021/06/20 08:18:22;;;;;;;30.20;25.25;;;21.10;99.80;;;;;;4829923;29;20516;-82
2021/06/20 08:20:49;;;;;;;31.88;27.25;;;21.10;99.70;;;;;;4819064;29;20060;-81
2021/06/20 08:23:15;;;;;;;28.02;23.90;;;21.00;99.50;;;;;;4833042;29;20401;-81
2021/06/20 08:25:42;;;;;;;29.17;23.08;;;21.00;99.60;;;;;;4817979;29;20421;-82
2021/06/20 08:28:08;;;;;;;27.30;22.45;;;20.90;99.50;;;;;;4817457;29;20064;-80
2021/06/20 08:30:35;;;;;;;25.98;22.17;;;21.00;99.50;;;;;;4831120;29;20060;-82
2021/06/20 08:33:01;;;;;;;25.42;21.50;;;20.90;99.40;;;;;;4788328;29;20241;-83
2021/06/20 08:35:28;;;;;;;22.98;20.20;;;21.00;99.40;;;;;;4787029;29;20447;-83
2021/06/20 08:37:55;;;;;;;23.85;19.63;;;21.10;99.10;;;;;;4832519;29;20058;-82
2021/06/20 08:40:21;;;;;;;25.10;19.35;;;21.10;99.00;;;;;;4803080;29;20041;-81
2021/06/20 08:42:48;;;;;;;25.60;20.95;;;21.20;99.10;;;;;;4820496;29;20046;-82
2021/06/20 08:45:15;;;;;;;25.80;19.63;;;21.20;98.90;;;;;;4817471;29;20077;-81
2021/06/20 08:47:42;;;;;;;23.85;21.25;;;21.30;98.80;;;;;;4832213;29;20058;-81
2021/06/20 08:50:11;;;;;;;28.13;23.58;;;21.30;98.80;;;;;;4828572;29;20050;-81
2021/06/20 08:52:37;;;;;;;29.65;24.90;;;21.40;98.50;;;;;;4814056;29;20030;-83
2021/06/20 08:55:06;;;;;;;29.25;22.00;;;21.40;98.20;;;;;;4831234;29;20042;-82
2021/06/20 08:57:39;;;;;;;26.63;20.85;;;21.40;98.10;;;;;;4788840;29;20049;-82
2021/06/20 09:00:11;;;;;;;32.97;28.27;;;21.40;98.10;;;;;;4831185;29;20406;-82
2021/06/20 09:02:39;;;;;;;30.38;24.20;;;21.30;98.10;;;;;;4832290;29;20070;-82
2021/06/20 09:05:08;;;;;;;27.27;21.92;;;21.30;98.00;;;;;;4829856;29;20076;-82
2021/06/20 09:07:35;;;;;;;25.30;20.45;;;21.20;98.10;;;;;;4801709;29;20050;-82
2021/06/20 09:10:13;;;;;;;28.70;20.95;;;21.20;98.20;;;;;;4817329;29;20049;-82
2021/06/20 09:12:51;;;;;;;26.67;20.10;;;21.20;98.10;;;;;;4831992;29;20056;-82
2021/06/20 09:15:27;;;;;;;21.55;16.50;;;21.30;98.00;;;;;;4830232;29;20034;-81
2021/06/20 09:17:58;;;;;;;22.13;16.73;;;21.50;98.40;;;;;;4830742;29;20054;-81
2021/06/20 09:20:40;;;;;;;24.58;19.48;;;21.70;97.90;;;;;;4828738;29;20049;-82
2021/06/20 09:23:12;;;;;;;23.70;18.65;;;21.80;97.20;;;;;;4831329;29;20045;-83
2021/06/20 09:25:42;;;;;;;23.38;18.13;;;21.90;97.10;;;;;;4833625;29;20061;-82
2021/06/20 09:28:10;;;;;;;21.63;17.48;;;22.10;97.20;;;;;;4829576;29;20061;-82
2021/06/20 09:30:49;;;;;;;21.52;17.27;;;22.30;97.00;;;;;;4828857;29;20042;-83
2021/06/20 09:33:16;;;;;;;18.48;16.15;;;22.50;97.10;;;;;;4818818;29;20057;-83
2021/06/20 09:35:56;;;;;;;19.75;16.10;;;22.80;96.60;;;;;;4832944;29;20053;-82
2021/06/20 09:38:34;;;;;;;18.13;15.75;;;23.00;96.00;;;;;;4814009;29;20069;-81
2021/06/20 09:41:10;;;;;;;17.02;15.13;;;23.20;95.80;;;;;;4831434;29;20052;-80
2021/06/20 09:43:39;;;;;;;17.20;15.40;;;23.50;94.90;;;;;;4831485;29;20050;-80
2021/06/20 09:46:10;;;;;;;13.65;11.93;;;23.60;94.00;;;;;;4828554;29;20060;-80
2021/06/20 09:48:37;;;;;;;15.25;12.93;;;23.60;94.00;;;;;;4814961;29;20042;-79
2021/06/20 09:51:25;;;;;;;15.15;12.75;;;23.70;93.90;;;;;;4830066;29;20046;-78
2021/06/20 09:53:52;;;;;;;17.48;14.02;;;23.80;93.80;;;;;;4832394;29;20057;-78
2021/06/20 09:56:27;;;;;;;15.77;13.35;;;24.00;93.70;;;;;;4830895;29;20048;-78
2021/06/20 09:59:04;;;;;;;15.82;13.13;;;24.10;93.00;;;;;;4813989;29;20045;-79
2021/06/20 10:01:42;;;;;;;13.50;11.80;;;24.10;92.50;;;;;;4815697;29;20596;-79
2021/06/20 10:04:08;;;;;;;14.40;10.80;;;24.10;92.90;;;;;;4829602;29;20057;-79
2021/06/20 10:06:35;;;;;;;11.98;9.60;;;24.40;92.70;;;;;;4801266;29;20049;-79
2021/06/20 10:09:01;;;;;;;10.90;9.65;;;24.50;92.30;;;;;;4829322;29;20073;-79
2021/06/20 10:11:28;;;;;;;13.38;9.95;;;24.50;92.10;;;;;;4830590;29;20045;-80
2021/06/20 10:13:54;;;;;;;11.25;9.38;;;24.30;91.70;;;;;;4830173;29;20422;-79
2021/06/20 10:16:24;;;;;;;11.20;9.27;;;24.20;92.10;;;;;;4814764;29;20097;-84
2021/06/20 10:19:12;;;;;;;9.45;8.38;;;24.40;92.30;;;;;;4828993;29;20046;-79
2021/06/20 10:21:45;;;;;;;11.02;9.93;;;24.70;92.10;;;;;;4829683;29;20042;-80
2021/06/20 10:24:17;;;;;;;13.05;8.68;;;25.10;91.40;;;;;;4833004;29;20037;-80
2021/06/20 10:26:56;;;;;;;10.05;8.55;;;25.60;91.20;;;;;;4818269;29;20038;-79
2021/06/20 10:29:27;;;;;;;8.30;7.40;;;26.00;90.60;;;;;;4827878;29;20521;-81
2021/06/20 10:31:54;;;;;;;8.45;7.50;;;26.40;90.30;;;;;;4831499;29;20502;-81
2021/06/20 10:34:29;;;;;;;6.85;6.15;;;26.70;89.60;;;;;;4816407;29;20840;-83
2021/06/20 10:37:00;;;;;;;8.65;7.75;;;26.90;89.50;;;;;;4831969;29;20053;-82
2021/06/20 10:39:27;;;;;;;6.25;5.55;;;27.00;87.90;;;;;;4814944;29;20521;-81
2021/06/20 10:42:11;;;;;;;8.32;5.80;;;27.00;88.10;;;;;;4828359;29;20078;-81
2021/06/20 10:44:51;;;;;;;7.95;7.20;;;27.10;86.70;;;;;;4814734;29;20049;-81
2021/06/20 10:47:37;;;;;;;6.05;4.75;;;27.10;85.70;;;;;;4816008;29;20041;-80
2021/06/20 10:50:05;;;;;;;6.75;5.68;;;27.30;86.70;;;;;;4829783;29;20042;-79
2021/06/20 10:52:32;;;;;;;6.32;5.72;;;27.50;85.50;;;;;;4832943;29;20033;-80
2021/06/20 10:55:03;;;;;;;4.88;4.38;;;27.80;83.30;;;;;;4831594;29;20042;-81
2021/06/20 10:57:30;;;;;;;6.38;4.43;;;27.90;82.40;;;;;;4830244;29;20058;-81
2021/06/20 10:59:59;;;;;;;6.82;5.32;;;27.90;80.50;;;;;;4833664;29;20053;-81
2021/06/20 11:02:33;;;;;;;6.05;5.47;;;27.90;79.90;;;;;;4817133;29;20058;-80
2021/06/20 11:05:01;;;;;;;6.07;5.47;;;28.00;80.40;;;;;;4832238;29;20049;-83
2021/06/20 11:07:28;;;;;;;5.80;5.20;;;28.20;80.20;;;;;;4800969;29;20046;-80
2021/06/20 11:09:58;;;;;;;6.43;5.63;;;28.70;79.90;;;;;;4819076;29;20049;-78
2021/06/20 11:12:26;;;;;;;6.38;5.05;;;29.00;77.50;;;;;;4832240;29;20561;-78
2021/06/20 11:14:54;;;;;;;6.68;4.28;;;29.00;77.10;;;;;;4833159;29;20496;-78
2021/06/20 11:17:31;;;;;;;6.53;5.82;;;28.90;76.50;;;;;;4819032;29;20046;-80
2021/06/20 11:19:58;;;;;;;5.30;4.13;;;28.70;73.40;;;;;;4834741;29;20062;-79
2021/06/20 11:22:24;;;;;;;10.20;4.53;;;28.60;74.90;;;;;;4836495;29;20054;-82
2021/06/20 11:24:51;;;;;;;7.10;6.18;;;28.60;75.60;;;;;;4822769;29;20054;-83
2021/06/20 11:27:22;;;;;;;7.63;6.55;;;28.50;75.10;;;;;;4821790;29;20062;-82
2021/06/20 11:29:57;;;;;;;7.32;5.45;;;28.40;75.30;;;;;;4819947;29;20053;-84
2021/06/20 11:32:28;;;;;;;11.18;5.07;;;28.20;75.60;;;;;;4821618;29;20116;-83
2021/06/20 11:35:08;;;;;;;12.20;4.78;;;28.20;76.10;;;;;;4835133;29;20512;-82
2021/06/20 11:37:38;;;;;;;15.88;5.65;;;28.30;75.50;;;;;;4834469;29;20070;-82
2021/06/20 11:40:11;;;;;;;7.30;4.05;;;28.20;74.80;;;;;;4835440;29;20049;-81
2021/06/20 11:42:42;;;;;;;8.40;4.07;;;28.00;75.00;;;;;;4820954;29;20061;-87
2021/06/20 11:45:15;;;;;;;5.60;3.85;;;28.10;75.60;;;;;;4807362;29;20054;-84
2021/06/20 11:47:50;;;;;;;8.93;4.85;;;28.80;75.70;;;;;;4834474;29;20046;-84
2021/06/20 11:50:24;;;;;;;13.90;5.18;;;29.60;72.50;;;;;;4805436;29;20038;-84
2021/06/20 11:53:01;;;;;;;15.20;5.18;;;30.30;70.80;;;;;;4819556;29;20513;-83
2021/06/20 11:55:30;;;;;;;6.93;4.00;;;30.90;69.30;;;;;;4835917;29;20041;-81
2021/06/20 11:58:02;;;;;;;18.95;4.70;;;31.20;67.80;;;;;;4835511;29;20490;-83
2021/06/20 12:00:28;;;;;;;6.03;4.25;;;31.70;67.70;;;;;;4834711;29;20410;-81
2021/06/20 12:03:03;;;;;;;6.60;4.40;;;32.20;65.70;;;;;;4803442;29;20391;-81
2021/06/20 12:05:44;;;;;;;6.65;5.07;;;32.40;64.10;;;;;;4819601;29;20056;-81
2021/06/20 12:08:12;;;;;;;5.93;4.80;;;32.50;62.40;;;;;;4816807;29;20454;-79
2021/06/20 12:10:43;;;;;;;6.13;3.50;;;32.30;61.60;;;;;;4830416;29;20049;-79
2021/06/20 12:13:10;;;;;;;5.78;5.22;;;32.30;61.70;;;;;;4835946;29;20033;-79
2021/06/20 12:15:38;;;;;;;2.88;2.50;;;32.60;60.30;;;;;;4830306;29;20049;-80
2021/06/20 12:18:06;;;;;;;4.25;2.58;;;32.70;59.90;;;;;;4831563;29;20054;-79
2021/06/20 12:20:38;;;;;;;5.32;3.42;;;32.70;59.20;;;;;;4799466;29;20525;-80
2021/06/20 12:23:06;;;;;;;3.13;2.72;;;32.30;58.80;;;;;;4834413;29;20041;-80
2021/06/20 12:25:43;;;;;;;4.35;3.17;;;31.90;58.60;;;;;;4788271;29;20134;-79
2021/06/20 12:28:11;;;;;;;2.30;2.05;;;31.30;59.20;;;;;;4817909;29;20057;-78
2021/06/20 12:30:40;;;;;;;3.47;3.03;;;31.00;60.20;;;;;;4816426;29;20045;-78
2021/06/20 12:33:12;;;;;;;6.72;4.20;;;30.70;60.40;;;;;;4817771;29;20042;-80
2021/06/20 12:35:42;;;;;;;5.88;5.00;;;30.80;60.30;;;;;;4828248;29;20234;-79
2021/06/20 12:38:19;;;;;;;3.95;2.92;;;31.00;59.80;;;;;;4815399;29;20034;-79